createdAt,value
2017-01-31T00:00:08.156Z,5.97
2017-01-31T00:00:29.868Z,5.93
2017-01-31T00:00:51.574Z,5.93
2017-01-31T00:01:13.281Z,5.93
2017-01-31T00:01:35.024Z,5.93
2017-01-31T00:01:56.722Z,5.93
2017-01-31T00:02:23.211Z,5.93
2017-01-31T00:02:44.913Z,5.92
2017-01-31T00:03:16.183Z,5.93
2017-01-31T00:03:37.912Z,5.94
2017-01-31T00:04:04.400Z,5.97
2017-01-31T00:04:26.115Z,5.96
2017-01-31T00:04:52.594Z,5.93
2017-01-31T00:05:14.304Z,5.95
2017-01-31T00:05:40.835Z,5.95
2017-01-31T00:06:02.570Z,5.99
2017-01-31T00:06:24.277Z,5.98
2017-01-31T00:06:50.774Z,5.96
2017-01-31T00:07:12.506Z,5.95
2017-01-31T00:07:48.536Z,5.93
2017-01-31T00:08:15.601Z,5.93
2017-01-31T00:08:37.322Z,5.92
2017-01-31T00:09:03.840Z,5.93
2017-01-31T00:09:25.557Z,5.95
2017-01-31T00:09:47.261Z,5.95
2017-01-31T00:10:18.511Z,5.96
2017-01-31T00:10:40.222Z,5.96
2017-01-31T00:11:06.718Z,5.95
2017-01-31T00:11:28.411Z,5.94
2017-01-31T00:11:50.185Z,5.93
2017-01-31T00:12:16.668Z,5.93
2017-01-31T00:12:38.390Z,5.93
2017-01-31T00:13:14.425Z,5.95
2017-01-31T00:13:41.494Z,5.94
2017-01-31T00:14:03.260Z,5.93
2017-01-31T00:14:34.516Z,5.93
2017-01-31T00:14:56.262Z,5.96
2017-01-31T00:15:22.716Z,5.97
2017-01-31T00:15:44.432Z,5.93
2017-01-31T00:16:20.460Z,5.94
2017-01-31T00:16:42.726Z,5.95
2017-01-31T00:17:04.456Z,5.96
2017-01-31T00:17:30.935Z,5.95
2017-01-31T00:17:52.655Z,5.93
2017-01-31T00:18:14.364Z,5.94
2017-01-31T00:18:40.842Z,5.96
2017-01-31T00:19:02.537Z,5.96
2017-01-31T00:19:24.236Z,5.95
2017-01-31T00:19:55.483Z,5.98
2017-01-31T00:20:17.193Z,5.99
2017-01-31T00:20:38.901Z,5.99
2017-01-31T00:21:05.384Z,5.99
2017-01-31T00:21:27.076Z,5.98
2017-01-31T00:21:53.550Z,5.96
2017-01-31T00:22:15.276Z,5.98
2017-01-31T00:22:46.525Z,5.97
2017-01-31T00:23:08.232Z,5.97
2017-01-31T00:23:34.714Z,5.93
2017-01-31T00:23:56.410Z,5.91
2017-01-31T00:24:18.126Z,5.93
2017-01-31T00:24:39.825Z,5.93
2017-01-31T00:25:01.529Z,5.96
2017-01-31T00:25:28.010Z,5.96
2017-01-31T00:25:49.714Z,5.97
2017-01-31T00:26:11.408Z,5.97
2017-01-31T00:26:37.880Z,5.97
2017-01-31T00:26:59.628Z,5.97
2017-01-31T00:27:26.107Z,5.94
2017-01-31T00:27:47.810Z,5.92
2017-01-31T00:28:09.551Z,5.95
2017-01-31T00:28:36.028Z,5.93
2017-01-31T00:28:57.725Z,5.92
2017-01-31T00:29:19.430Z,5.95
2017-01-31T00:29:41.134Z,5.96
2017-01-31T00:30:02.824Z,5.96
2017-01-31T00:30:29.304Z,5.93
2017-01-31T00:30:51.023Z,5.92
2017-01-31T00:31:12.715Z,5.95
2017-01-31T00:31:39.193Z,5.93
2017-01-31T00:32:00.887Z,5.93
2017-01-31T00:32:22.614Z,5.95
2017-01-31T00:32:58.638Z,5.93
2017-01-31T00:33:25.670Z,5.90
2017-01-31T00:33:47.397Z,5.89
2017-01-31T00:34:09.117Z,5.90
2017-01-31T00:34:30.827Z,5.91
2017-01-31T00:34:52.537Z,5.91
2017-01-31T00:35:19.025Z,5.92
2017-01-31T00:35:40.711Z,5.91
2017-01-31T00:36:02.414Z,5.91
2017-01-31T00:36:24.114Z,5.91
2017-01-31T00:36:45.826Z,5.89
2017-01-31T00:37:17.087Z,5.90
2017-01-31T00:37:38.786Z,5.91
2017-01-31T00:38:10.046Z,5.89
2017-01-31T00:38:31.748Z,5.91
2017-01-31T00:38:58.228Z,5.89
2017-01-31T00:39:19.922Z,5.91
2017-01-31T00:39:41.623Z,5.92
2017-01-31T00:40:03.324Z,5.91
2017-01-31T00:40:25.029Z,5.91
2017-01-31T00:40:46.739Z,5.92
2017-01-31T00:41:13.210Z,5.91
2017-01-31T00:41:34.919Z,5.90
2017-01-31T00:42:06.166Z,5.89
2017-01-31T00:42:27.876Z,5.89
2017-01-31T00:42:54.351Z,5.89
2017-01-31T00:43:16.084Z,5.91
2017-01-31T00:43:37.790Z,5.91
2017-01-31T00:44:04.260Z,5.89
2017-01-31T00:44:25.957Z,5.89
2017-01-31T00:44:52.441Z,5.89
2017-01-31T00:45:14.139Z,5.88
2017-01-31T00:45:35.846Z,5.88
2017-01-31T00:46:02.332Z,5.87
2017-01-31T00:46:24.034Z,5.89
2017-01-31T00:46:50.514Z,5.89
2017-01-31T00:47:12.233Z,5.90
2017-01-31T00:47:38.717Z,5.87
2017-01-31T00:48:00.412Z,5.89
2017-01-31T00:48:26.889Z,5.89
2017-01-31T00:48:48.595Z,5.89
2017-01-31T00:49:10.291Z,5.88
2017-01-31T00:49:31.999Z,5.88
2017-01-31T00:49:53.696Z,5.88
2017-01-31T00:50:29.723Z,5.89
2017-01-31T00:50:56.753Z,5.90
2017-01-31T00:51:18.467Z,5.90
2017-01-31T00:51:40.176Z,5.89
2017-01-31T00:52:06.647Z,5.88
2017-01-31T00:52:28.348Z,5.89
2017-01-31T00:52:50.047Z,5.89
2017-01-31T00:53:16.521Z,5.90
2017-01-31T00:53:38.264Z,5.90
2017-01-31T00:54:04.742Z,5.87
2017-01-31T00:54:26.447Z,5.88
2017-01-31T00:54:48.153Z,5.89
2017-01-31T00:55:09.864Z,5.88
2017-01-31T00:55:31.558Z,5.89
2017-01-31T00:55:58.029Z,5.88
2017-01-31T00:56:19.726Z,5.87
2017-01-31T00:56:46.209Z,5.85
2017-01-31T00:57:07.907Z,5.87
2017-01-31T00:57:34.382Z,5.85
2017-01-31T00:57:56.098Z,5.83
2017-01-31T00:58:17.823Z,5.84
2017-01-31T00:58:44.310Z,5.84
2017-01-31T00:59:06.008Z,5.83
2017-01-31T00:59:37.258Z,5.86
2017-01-31T00:59:58.962Z,5.85
2017-01-31T01:00:30.214Z,5.85
2017-01-31T01:00:51.918Z,5.84
2017-01-31T01:01:13.647Z,5.83
2017-01-31T01:01:40.127Z,5.84
2017-01-31T01:02:01.831Z,5.83
2017-01-31T01:02:28.307Z,5.83
2017-01-31T01:02:50.003Z,5.83
2017-01-31T01:03:16.483Z,5.83
2017-01-31T01:03:38.171Z,5.83
2017-01-31T01:04:04.653Z,5.82
2017-01-31T01:04:26.362Z,5.82
2017-01-31T01:04:52.834Z,5.84
2017-01-31T01:05:14.548Z,5.84
2017-01-31T01:05:41.020Z,5.80
2017-01-31T01:06:07.489Z,5.80
2017-01-31T01:06:29.210Z,5.82
2017-01-31T01:06:51.016Z,5.83
2017-01-31T01:07:17.596Z,5.85
2017-01-31T01:07:39.404Z,5.86
2017-01-31T01:08:10.669Z,5.86
2017-01-31T01:08:32.378Z,5.86
2017-01-31T01:08:58.878Z,5.88
2017-01-31T01:09:20.584Z,5.89
2017-01-31T01:09:47.088Z,5.91
2017-01-31T01:10:08.784Z,5.90
2017-01-31T01:10:30.479Z,5.88
2017-01-31T01:10:56.975Z,5.89
2017-01-31T01:11:18.709Z,5.90
2017-01-31T01:11:49.970Z,5.90
2017-01-31T01:12:11.672Z,5.90
2017-01-31T01:12:38.145Z,5.88
2017-01-31T01:12:59.849Z,5.88
2017-01-31T01:13:21.562Z,5.88
2017-01-31T01:13:57.591Z,5.88
2017-01-31T01:14:24.652Z,5.86
2017-01-31T01:14:46.376Z,5.86
2017-01-31T01:15:58.430Z,5.84
2017-01-31T01:16:20.155Z,5.86
2017-01-31T01:16:51.406Z,5.87
2017-01-31T01:17:13.130Z,5.88
2017-01-31T01:17:44.387Z,5.88
2017-01-31T01:18:06.104Z,5.86
2017-01-31T01:18:37.356Z,5.88
2017-01-31T01:18:59.169Z,5.90
2017-01-31T01:19:30.413Z,5.91
2017-01-31T01:19:52.116Z,5.93
2017-01-31T01:20:18.603Z,5.93
2017-01-31T01:20:40.334Z,5.95
2017-01-31T01:21:11.629Z,5.96
2017-01-31T01:21:33.306Z,5.92
2017-01-31T01:21:59.798Z,5.92
2017-01-31T01:22:21.504Z,5.91
2017-01-31T01:22:47.993Z,5.90
2017-01-31T01:23:09.702Z,5.90
2017-01-31T01:23:45.737Z,5.90
2017-01-31T01:24:12.792Z,5.90
2017-01-31T01:24:34.489Z,5.89
2017-01-31T01:24:56.203Z,5.89
2017-01-31T01:25:27.452Z,5.91
2017-01-31T01:25:49.169Z,5.90
2017-01-31T01:26:15.646Z,5.85
2017-01-31T01:26:37.369Z,5.83
2017-01-31T01:26:59.129Z,5.84
2017-01-31T01:27:30.382Z,5.88
2017-01-31T01:27:52.116Z,5.88
2017-01-31T01:28:23.360Z,5.89
2017-01-31T01:28:45.065Z,5.92
2017-01-31T01:29:16.333Z,5.90
2017-01-31T01:29:38.131Z,5.88
2017-01-31T01:30:09.377Z,5.89
2017-01-31T01:30:31.119Z,5.88
2017-01-31T01:30:57.619Z,5.88
2017-01-31T01:31:19.346Z,5.89
2017-01-31T01:31:41.053Z,5.88
2017-01-31T01:32:34.016Z,5.86
2017-01-31T01:33:00.498Z,5.86
2017-01-31T01:33:22.218Z,5.87
2017-01-31T01:33:53.473Z,5.86
2017-01-31T01:34:15.173Z,5.87
2017-01-31T01:35:22.448Z,5.85
2017-01-31T01:35:44.171Z,5.85
2017-01-31T01:36:15.426Z,5.82
2017-01-31T01:36:37.139Z,5.83
2017-01-31T01:36:58.844Z,5.84
2017-01-31T01:37:20.555Z,5.85
2017-01-31T01:37:42.262Z,5.86
2017-01-31T01:38:03.992Z,5.86
2017-01-31T01:38:25.708Z,5.86
2017-01-31T01:38:47.429Z,5.86
2017-01-31T01:39:09.125Z,5.88
2017-01-31T01:39:40.384Z,5.86
2017-01-31T01:40:02.084Z,5.88
2017-01-31T01:40:23.789Z,5.88
2017-01-31T01:40:50.269Z,5.88
2017-01-31T01:41:11.980Z,5.88
2017-01-31T01:41:33.677Z,5.87
2017-01-31T01:42:04.976Z,5.87
2017-01-31T01:42:26.677Z,5.88
2017-01-31T01:42:53.169Z,5.88
2017-01-31T01:43:14.837Z,5.90
2017-01-31T01:43:41.329Z,5.91
2017-01-31T01:44:04.063Z,5.93
2017-01-31T01:44:25.783Z,5.91
2017-01-31T01:44:52.268Z,5.91
2017-01-31T01:45:13.978Z,5.93
2017-01-31T01:45:38.557Z,5.93
2017-01-31T01:46:00.265Z,5.96
2017-01-31T01:46:26.757Z,5.96
2017-01-31T01:46:48.457Z,5.97
2017-01-31T01:47:10.150Z,5.96
2017-01-31T01:47:36.637Z,5.97
2017-01-31T01:47:58.376Z,5.96
2017-01-31T01:48:20.085Z,5.95
2017-01-31T01:48:41.795Z,5.94
2017-01-31T01:49:03.503Z,5.93
2017-01-31T01:49:29.997Z,5.95
2017-01-31T01:49:51.705Z,5.96
2017-01-31T01:50:22.951Z,5.96
2017-01-31T01:50:44.669Z,5.97
2017-01-31T01:51:06.413Z,5.97
2017-01-31T01:51:28.112Z,5.96
2017-01-31T01:51:49.832Z,5.96
2017-01-31T01:52:16.313Z,5.97
2017-01-31T01:52:38.006Z,5.98
2017-01-31T01:53:04.491Z,5.97
2017-01-31T01:53:26.197Z,5.95
2017-01-31T01:53:47.933Z,5.97
2017-01-31T01:54:14.402Z,5.96
2017-01-31T01:54:40.896Z,5.98
2017-01-31T01:55:07.486Z,5.99
2017-01-31T01:55:29.210Z,5.99
2017-01-31T01:56:00.457Z,5.99
2017-01-31T01:56:22.226Z,5.98
2017-01-31T01:56:48.691Z,6.00
2017-01-31T01:57:10.395Z,5.99
2017-01-31T01:57:41.650Z,5.96
2017-01-31T01:58:03.348Z,5.95
2017-01-31T01:58:25.068Z,5.95
2017-01-31T01:58:51.552Z,5.92
2017-01-31T01:59:13.294Z,5.91
2017-01-31T01:59:39.740Z,5.92
2017-01-31T02:00:01.448Z,5.92
2017-01-31T02:00:23.176Z,5.89
2017-01-31T02:00:59.194Z,5.89
2017-01-31T02:01:26.280Z,5.89
2017-01-31T02:01:47.984Z,5.89
2017-01-31T02:02:14.459Z,5.89
2017-01-31T02:02:36.163Z,5.90
2017-01-31T02:02:57.885Z,5.90
2017-01-31T02:03:24.372Z,5.89
2017-01-31T02:03:46.094Z,5.89
2017-01-31T02:04:07.812Z,5.89
2017-01-31T02:04:29.516Z,5.88
2017-01-31T02:04:51.208Z,5.86
2017-01-31T02:05:13.010Z,5.85
2017-01-31T02:05:39.503Z,5.85
2017-01-31T02:06:01.228Z,5.85
2017-01-31T02:06:32.884Z,5.87
2017-01-31T02:06:54.582Z,5.88
2017-01-31T02:07:21.080Z,5.85
2017-01-31T02:07:42.844Z,5.84
2017-01-31T02:08:04.562Z,5.84
2017-01-31T02:08:26.301Z,5.83
2017-01-31T02:08:48.083Z,5.84
2017-01-31T02:09:09.913Z,5.85
2017-01-31T02:09:36.481Z,5.85
2017-01-31T02:09:58.287Z,5.86
2017-01-31T02:10:29.539Z,5.85
2017-01-31T02:10:51.253Z,5.83
2017-01-31T02:11:17.715Z,5.82
2017-01-31T02:11:39.477Z,5.82
2017-01-31T02:12:05.961Z,5.82
2017-01-31T02:12:27.737Z,5.81
2017-01-31T02:12:54.224Z,5.82
2017-01-31T02:13:15.938Z,5.80
2017-01-31T02:13:37.658Z,5.79
2017-01-31T02:13:59.377Z,5.79
2017-01-31T02:14:21.176Z,5.79
2017-01-31T02:14:47.742Z,5.79
2017-01-31T02:15:14.230Z,5.79
2017-01-31T02:15:35.948Z,5.79
2017-01-31T02:16:02.435Z,5.78
2017-01-31T02:16:24.142Z,5.79
2017-01-31T02:16:50.626Z,5.80
2017-01-31T02:17:12.371Z,5.82
2017-01-31T02:17:38.853Z,5.83
2017-01-31T02:18:03.487Z,5.83
2017-01-31T02:18:29.981Z,5.81
2017-01-31T02:18:51.677Z,5.82
2017-01-31T02:19:13.393Z,5.79
2017-01-31T02:19:39.863Z,5.77
2017-01-31T02:20:01.570Z,5.78
2017-01-31T02:20:32.830Z,5.79
2017-01-31T02:20:54.540Z,5.80
2017-01-31T02:22:06.598Z,5.77
2017-01-31T02:22:28.298Z,5.77
2017-01-31T02:22:54.815Z,5.79
2017-01-31T02:23:16.528Z,5.79
2017-01-31T02:23:43.021Z,5.80
2017-01-31T02:24:04.713Z,5.81
2017-01-31T02:24:35.981Z,5.79
2017-01-31T02:24:57.696Z,5.77
2017-01-31T02:25:24.179Z,5.75
2017-01-31T02:25:45.881Z,5.74
2017-01-31T02:26:07.604Z,5.71
2017-01-31T02:26:38.861Z,5.73
2017-01-31T02:27:00.611Z,5.72
2017-01-31T02:27:22.324Z,5.73
2017-01-31T02:27:53.586Z,5.74
2017-01-31T02:28:15.296Z,5.75
2017-01-31T02:28:37.006Z,5.75
2017-01-31T02:29:03.478Z,5.74
2017-01-31T02:29:25.202Z,5.76
2017-01-31T02:29:46.894Z,5.77
2017-01-31T02:30:18.149Z,5.77
2017-01-31T02:30:39.849Z,5.80
2017-01-31T02:31:01.545Z,5.78
2017-01-31T02:31:23.252Z,5.78
2017-01-31T02:31:44.950Z,5.77
2017-01-31T02:32:06.673Z,5.80
2017-01-31T02:32:28.381Z,5.80
2017-01-31T02:32:50.104Z,5.79
2017-01-31T02:33:21.363Z,5.79
2017-01-31T02:33:43.056Z,5.77
2017-01-31T02:34:14.308Z,5.78
2017-01-31T02:34:35.997Z,5.77
2017-01-31T02:35:02.477Z,5.78
2017-01-31T02:35:24.175Z,5.77
2017-01-31T02:35:45.881Z,5.76
2017-01-31T02:36:21.923Z,5.78
2017-01-31T02:36:49.017Z,5.79
2017-01-31T02:37:10.769Z,5.78
2017-01-31T02:37:32.481Z,5.77
2017-01-31T02:38:03.934Z,5.74
2017-01-31T02:38:28.632Z,5.75
2017-01-31T02:38:59.888Z,5.77
2017-01-31T02:39:21.598Z,5.76
2017-01-31T02:39:48.089Z,5.74
2017-01-31T02:40:09.784Z,5.75
2017-01-31T02:40:41.033Z,5.76
2017-01-31T02:41:02.750Z,5.74
2017-01-31T02:42:14.818Z,5.74
2017-01-31T02:42:41.286Z,5.75
2017-01-31T02:43:12.540Z,5.72
2017-01-31T02:43:34.259Z,5.71
2017-01-31T02:43:55.962Z,5.69
2017-01-31T02:44:22.482Z,5.70
2017-01-31T02:44:44.214Z,5.69
2017-01-31T02:45:05.920Z,5.70
2017-01-31T02:45:41.951Z,5.68
2017-01-31T02:46:09.003Z,5.66
2017-01-31T02:46:30.769Z,5.66
2017-01-31T02:46:57.254Z,5.66
2017-01-31T02:47:19.006Z,5.66
2017-01-31T02:48:26.278Z,5.69
2017-01-31T02:48:47.982Z,5.70
2017-01-31T02:49:50.505Z,5.75
2017-01-31T02:50:12.214Z,5.71
2017-01-31T02:50:43.481Z,5.70
2017-01-31T02:51:05.183Z,5.69
2017-01-31T02:51:36.457Z,5.69
2017-01-31T02:51:58.166Z,5.67
2017-01-31T02:52:29.422Z,5.68
2017-01-31T02:52:51.140Z,5.68
2017-01-31T02:53:17.640Z,5.68
2017-01-31T02:53:39.352Z,5.68
2017-01-31T02:54:10.598Z,5.68
2017-01-31T02:54:32.297Z,5.71
2017-01-31T02:54:58.777Z,5.72
2017-01-31T02:55:20.494Z,5.73
2017-01-31T02:56:32.544Z,5.72
2017-01-31T02:56:54.238Z,5.73
2017-01-31T02:57:20.722Z,5.72
2017-01-31T02:57:42.426Z,5.70
2017-01-31T02:58:13.677Z,5.67
2017-01-31T02:58:35.383Z,5.68
2017-01-31T02:59:06.643Z,5.69
2017-01-31T02:59:28.348Z,5.69
2017-01-31T02:59:50.061Z,5.69
2017-01-31T03:00:26.089Z,5.69
2017-01-31T03:00:53.154Z,5.68
2017-01-31T03:01:14.857Z,5.66
2017-01-31T03:01:41.344Z,5.64
2017-01-31T03:02:07.869Z,5.62
2017-01-31T03:02:43.903Z,5.61
2017-01-31T03:03:10.962Z,5.64
2017-01-31T03:03:32.682Z,5.64
2017-01-31T03:03:54.394Z,5.61
2017-01-31T03:04:20.885Z,5.60
2017-01-31T03:04:42.602Z,5.60
2017-01-31T03:05:04.315Z,5.60
2017-01-31T03:05:30.859Z,5.59
2017-01-31T03:05:52.564Z,5.60
2017-01-31T03:06:19.051Z,5.60
2017-01-31T03:06:40.761Z,5.60
2017-01-31T03:07:07.268Z,5.60
2017-01-31T03:07:28.982Z,5.60
2017-01-31T03:08:00.259Z,5.57
2017-01-31T03:08:22.015Z,5.56
2017-01-31T03:08:48.511Z,5.56
2017-01-31T03:09:10.263Z,5.55
2017-01-31T03:09:31.969Z,5.54
2017-01-31T03:10:03.229Z,5.55
2017-01-31T03:10:24.931Z,5.55
2017-01-31T03:10:56.348Z,5.55
2017-01-31T03:11:18.048Z,5.53
2017-01-31T03:12:30.115Z,5.55
2017-01-31T03:12:51.821Z,5.56
2017-01-31T03:13:59.143Z,5.53
2017-01-31T03:14:20.843Z,5.53
2017-01-31T03:15:28.123Z,5.54
2017-01-31T03:15:49.838Z,5.56
2017-01-31T03:16:21.097Z,5.54
2017-01-31T03:16:42.794Z,5.54
2017-01-31T03:17:18.832Z,5.53
2017-01-31T03:17:45.868Z,5.53
2017-01-31T03:18:07.565Z,5.54
2017-01-31T03:18:29.268Z,5.55
2017-01-31T03:18:50.972Z,5.56
2017-01-31T03:19:12.671Z,5.55
2017-01-31T03:19:34.387Z,5.54
2017-01-31T03:19:56.100Z,5.53
2017-01-31T03:20:17.808Z,5.52
2017-01-31T03:20:39.519Z,5.52
2017-01-31T03:21:51.580Z,5.54
2017-01-31T03:22:13.322Z,5.53
2017-01-31T03:22:39.811Z,5.53
2017-01-31T03:23:01.508Z,5.53
2017-01-31T03:23:32.777Z,5.52
2017-01-31T03:23:54.476Z,5.52
2017-01-31T03:24:25.727Z,5.52
2017-01-31T03:24:47.462Z,5.51
2017-01-31T03:25:18.732Z,5.51
2017-01-31T03:25:40.447Z,5.51
2017-01-31T03:26:11.722Z,5.52
2017-01-31T03:26:33.412Z,5.53
2017-01-31T03:27:09.481Z,5.50
2017-01-31T03:27:36.527Z,5.49
2017-01-31T03:27:58.239Z,5.49
2017-01-31T03:29:00.760Z,5.51
2017-01-31T03:29:27.230Z,5.51
2017-01-31T03:29:53.718Z,5.52
2017-01-31T03:30:15.403Z,5.53
2017-01-31T03:31:22.833Z,5.54
2017-01-31T03:31:44.512Z,5.53
2017-01-31T03:32:10.993Z,5.50
2017-01-31T03:32:32.706Z,5.48
2017-01-31T03:32:59.187Z,5.43
2017-01-31T03:33:20.888Z,5.42
2017-01-31T03:33:47.355Z,5.42
2017-01-31T03:34:09.054Z,5.39
2017-01-31T03:34:30.776Z,5.39
2017-01-31T03:34:57.257Z,5.41
2017-01-31T03:35:18.952Z,5.43
2017-01-31T03:35:40.656Z,5.44
2017-01-31T03:36:07.149Z,5.45
2017-01-31T03:36:28.841Z,5.45
2017-01-31T03:36:55.321Z,5.47
2017-01-31T03:37:17.021Z,5.47
2017-01-31T03:37:38.808Z,5.49
2017-01-31T03:38:00.516Z,5.46
2017-01-31T03:38:22.206Z,5.46
2017-01-31T03:38:43.920Z,5.47
2017-01-31T03:39:05.714Z,5.47
2017-01-31T03:39:27.424Z,5.47
2017-01-31T03:39:49.119Z,5.47
2017-01-31T03:40:10.862Z,5.45
2017-01-31T03:40:32.662Z,5.44
2017-01-31T03:41:03.917Z,5.45
2017-01-31T03:41:25.626Z,5.44
2017-01-31T03:42:33.019Z,5.46
2017-01-31T03:42:54.748Z,5.47
2017-01-31T03:43:30.780Z,5.47
2017-01-31T03:43:57.929Z,5.49
2017-01-31T03:44:19.640Z,5.47
2017-01-31T03:45:27.034Z,5.48
2017-01-31T03:45:48.753Z,5.48
2017-01-31T03:46:15.237Z,5.49
2017-01-31T03:46:36.947Z,5.49
2017-01-31T03:47:08.209Z,5.47
2017-01-31T03:47:29.907Z,5.49
2017-01-31T03:47:56.390Z,5.45
2017-01-31T03:48:18.103Z,5.46
2017-01-31T03:48:54.127Z,5.44
2017-01-31T03:49:21.276Z,5.45
2017-01-31T03:49:42.991Z,5.45
2017-01-31T03:50:04.704Z,5.44
2017-01-31T03:50:31.200Z,5.48
2017-01-31T03:50:52.995Z,5.49
2017-01-31T03:51:14.692Z,5.48
2017-01-31T03:51:41.171Z,5.48
2017-01-31T03:52:02.975Z,5.49
2017-01-31T03:52:29.449Z,5.49
2017-01-31T03:52:51.145Z,5.50
2017-01-31T03:53:17.623Z,5.47
2017-01-31T03:53:39.354Z,5.46
2017-01-31T03:54:05.830Z,5.49
2017-01-31T03:54:27.542Z,5.48
2017-01-31T03:54:49.344Z,5.47
2017-01-31T03:55:11.057Z,5.47
2017-01-31T03:55:32.800Z,5.48
2017-01-31T03:55:59.371Z,5.49
2017-01-31T03:56:21.065Z,5.51
2017-01-31T03:56:42.761Z,5.50
2017-01-31T03:57:04.469Z,5.50
2017-01-31T03:57:31.038Z,5.50
2017-01-31T03:57:52.730Z,5.48
2017-01-31T03:58:23.990Z,5.46
2017-01-31T03:58:45.791Z,5.45
2017-01-31T03:59:07.491Z,5.46
2017-01-31T03:59:29.200Z,5.47
2017-01-31T03:59:50.940Z,5.48
2017-01-31T04:00:12.737Z,5.48
2017-01-31T04:00:34.361Z,5.47
2017-01-31T04:00:56.064Z,5.49
2017-01-31T04:01:17.786Z,5.47
2017-01-31T04:01:44.286Z,5.49
2017-01-31T04:02:05.977Z,5.51
2017-01-31T04:02:27.720Z,5.50
2017-01-31T04:02:49.432Z,5.50
2017-01-31T04:03:11.227Z,5.51
2017-01-31T04:03:47.264Z,5.49
2017-01-31T04:04:14.304Z,5.48
2017-01-31T04:04:36.006Z,5.49
2017-01-31T04:04:57.712Z,5.50
2017-01-31T04:05:19.426Z,5.48
2017-01-31T04:05:41.130Z,5.48
2017-01-31T04:06:48.420Z,5.44
2017-01-31T04:07:10.118Z,5.46
2017-01-31T04:07:46.152Z,5.47
2017-01-31T04:08:13.182Z,5.51
2017-01-31T04:08:34.892Z,5.51
2017-01-31T04:08:56.598Z,5.50
2017-01-31T04:09:23.097Z,5.49
2017-01-31T04:09:44.905Z,5.50
2017-01-31T04:10:06.613Z,5.47
2017-01-31T04:10:33.103Z,5.47
2017-01-31T04:10:54.889Z,5.48
2017-01-31T04:12:02.165Z,5.50
2017-01-31T04:12:23.877Z,5.50
2017-01-31T04:12:50.366Z,5.49
2017-01-31T04:13:12.156Z,5.48
2017-01-31T04:13:33.873Z,5.48
2017-01-31T04:14:00.375Z,5.48
2017-01-31T04:14:22.083Z,5.49
2017-01-31T04:14:43.875Z,5.50
2017-01-31T04:15:05.580Z,5.48
2017-01-31T04:15:27.283Z,5.47
2017-01-31T04:15:48.975Z,5.47
2017-01-31T04:16:10.776Z,5.48
2017-01-31T04:16:32.470Z,5.48
2017-01-31T04:16:58.994Z,5.47
2017-01-31T04:17:20.800Z,5.46
2017-01-31T04:18:23.327Z,5.48
2017-01-31T04:18:45.020Z,5.48
2017-01-31T04:19:21.047Z,5.49
2017-01-31T04:19:48.074Z,5.49
2017-01-31T04:20:09.790Z,5.50
2017-01-31T04:20:31.508Z,5.50
2017-01-31T04:20:53.225Z,5.48
2017-01-31T04:21:55.823Z,5.45
2017-01-31T04:22:17.549Z,5.48
2017-01-31T04:22:39.259Z,5.46
2017-01-31T04:23:00.981Z,5.43
2017-01-31T04:23:22.784Z,5.44
2017-01-31T04:23:44.505Z,5.42
2017-01-31T04:24:11.011Z,5.41
2017-01-31T04:24:32.796Z,5.40
2017-01-31T04:24:59.280Z,5.40
2017-01-31T04:25:20.990Z,5.42
2017-01-31T04:25:52.362Z,5.45
2017-01-31T04:26:14.084Z,5.45
2017-01-31T04:26:45.340Z,5.41
2017-01-31T04:27:07.136Z,5.40
2017-01-31T04:27:28.877Z,5.39
2017-01-31T04:27:50.599Z,5.40
2017-01-31T04:28:12.308Z,5.41
2017-01-31T04:28:34.107Z,5.43
2017-01-31T04:28:55.813Z,5.42
2017-01-31T04:29:17.532Z,5.42
2017-01-31T04:29:48.788Z,5.40
2017-01-31T04:30:10.490Z,5.41
2017-01-31T04:30:36.988Z,5.42
2017-01-31T04:30:58.717Z,5.44
2017-01-31T04:31:20.541Z,5.45
2017-01-31T04:31:47.028Z,5.44
2017-01-31T04:32:08.736Z,5.39
2017-01-31T04:32:35.299Z,5.41
2017-01-31T04:32:57.110Z,5.41
2017-01-31T04:33:23.693Z,5.40
2017-01-31T04:33:45.396Z,5.42
2017-01-31T04:34:11.964Z,5.42
2017-01-31T04:34:33.668Z,5.41
2017-01-31T04:35:00.139Z,5.44
2017-01-31T04:35:21.851Z,5.45
2017-01-31T04:35:48.425Z,5.42
2017-01-31T04:36:24.459Z,5.43
2017-01-31T04:36:51.613Z,5.43
2017-01-31T04:37:13.315Z,5.45
2017-01-31T04:37:44.580Z,5.45
2017-01-31T04:38:06.296Z,5.47
2017-01-31T04:38:32.859Z,5.47
2017-01-31T04:38:54.550Z,5.46
2017-01-31T04:39:21.040Z,5.41
2017-01-31T04:39:42.767Z,5.41
2017-01-31T04:40:09.248Z,5.40
2017-01-31T04:40:30.940Z,5.37
2017-01-31T04:40:57.413Z,5.39
2017-01-31T04:41:19.121Z,5.39
2017-01-31T04:41:40.914Z,5.40
2017-01-31T04:42:02.625Z,5.36
2017-01-31T04:42:24.323Z,5.34
2017-01-31T04:42:46.020Z,5.33
2017-01-31T04:43:53.304Z,5.36
2017-01-31T04:44:15.003Z,5.38
2017-01-31T04:44:36.726Z,5.40
2017-01-31T04:45:07.980Z,5.40
2017-01-31T04:45:29.681Z,5.36
2017-01-31T04:45:54.212Z,5.37
2017-01-31T04:46:15.925Z,5.37
2017-01-31T04:47:23.211Z,5.36
2017-01-31T04:47:44.901Z,5.36
2017-01-31T04:48:11.380Z,5.35
2017-01-31T04:48:33.077Z,5.36
2017-01-31T04:48:54.778Z,5.33
2017-01-31T04:49:21.254Z,5.33
2017-01-31T04:49:43.015Z,5.34
2017-01-31T04:50:14.253Z,5.36
2017-01-31T04:50:35.955Z,5.37
2017-01-31T04:50:57.655Z,5.40
2017-01-31T04:51:21.392Z,5.39
2017-01-31T04:51:43.101Z,5.36
2017-01-31T04:52:04.815Z,5.35
2017-01-31T04:52:31.333Z,5.33
2017-01-31T04:52:53.034Z,5.33
2017-01-31T04:53:19.509Z,5.33
2017-01-31T04:53:41.205Z,5.34
2017-01-31T04:54:02.919Z,5.36
2017-01-31T04:54:29.401Z,5.35
2017-01-31T04:54:51.144Z,5.34
2017-01-31T04:55:12.855Z,5.33
2017-01-31T04:55:44.102Z,5.31
2017-01-31T04:56:05.813Z,5.32
2017-01-31T04:56:27.544Z,5.32
2017-01-31T04:56:58.807Z,5.32
2017-01-31T04:57:20.513Z,5.34
2017-01-31T04:58:32.576Z,5.34
2017-01-31T04:58:54.277Z,5.33
2017-01-31T04:59:15.975Z,5.32
2017-01-31T04:59:47.235Z,5.33
2017-01-31T05:00:08.952Z,5.32
2017-01-31T05:00:30.659Z,5.32
2017-01-31T05:01:01.921Z,5.35
2017-01-31T05:01:23.612Z,5.37
2017-01-31T05:01:54.904Z,5.35
2017-01-31T05:02:16.610Z,5.36
2017-01-31T05:02:47.860Z,5.34
2017-01-31T05:03:09.568Z,5.34
2017-01-31T05:03:40.818Z,5.28
2017-01-31T05:04:02.539Z,5.28
2017-01-31T05:04:24.222Z,5.26
2017-01-31T05:04:50.726Z,5.24
2017-01-31T05:05:12.419Z,5.23
2017-01-31T05:05:38.903Z,5.22
2017-01-31T05:06:00.648Z,5.24
2017-01-31T05:06:36.682Z,5.25
2017-01-31T05:06:58.987Z,5.26
2017-01-31T05:07:20.711Z,5.25
2017-01-31T05:07:42.436Z,5.24
2017-01-31T05:08:08.910Z,5.21
2017-01-31T05:08:30.632Z,5.21
2017-01-31T05:08:57.153Z,5.20
2017-01-31T05:09:18.865Z,5.20
2017-01-31T05:09:40.635Z,5.21
2017-01-31T05:10:52.692Z,5.25
2017-01-31T05:11:14.426Z,5.23
2017-01-31T05:11:40.953Z,5.19
2017-01-31T05:12:02.669Z,5.19
2017-01-31T05:13:14.723Z,5.22
2017-01-31T05:13:36.431Z,5.21
2017-01-31T05:13:58.156Z,5.23
2017-01-31T05:14:29.402Z,5.25
2017-01-31T05:14:51.183Z,5.29
2017-01-31T05:15:22.442Z,5.30
2017-01-31T05:15:44.136Z,5.28
2017-01-31T05:16:20.164Z,5.27
2017-01-31T05:16:42.441Z,5.28
2017-01-31T05:17:04.162Z,5.28
2017-01-31T05:17:30.639Z,5.30
2017-01-31T05:17:52.333Z,5.29
2017-01-31T05:18:14.051Z,5.27
2017-01-31T05:18:40.543Z,5.28
2017-01-31T05:19:02.242Z,5.31
2017-01-31T05:19:23.954Z,5.32
2017-01-31T05:19:50.440Z,5.32
2017-01-31T05:20:12.141Z,5.32
2017-01-31T05:20:33.859Z,5.31
2017-01-31T05:21:00.342Z,5.32
2017-01-31T05:21:31.598Z,5.32
2017-01-31T05:21:53.303Z,5.32
2017-01-31T05:22:17.970Z,5.32
2017-01-31T05:22:39.703Z,5.31
2017-01-31T05:23:42.225Z,5.30
2017-01-31T05:24:03.907Z,5.27
2017-01-31T05:24:39.934Z,5.27
2017-01-31T05:25:06.997Z,5.27
2017-01-31T05:25:28.689Z,5.26
2017-01-31T05:25:50.392Z,5.24
2017-01-31T05:26:16.886Z,5.27
2017-01-31T05:26:38.606Z,5.28
2017-01-31T05:27:09.868Z,5.27
2017-01-31T05:27:31.582Z,5.27
2017-01-31T05:27:58.054Z,5.27
2017-01-31T05:28:19.761Z,5.26
2017-01-31T05:28:41.474Z,5.26
2017-01-31T05:29:12.725Z,5.28
2017-01-31T05:29:34.438Z,5.27
2017-01-31T05:29:56.161Z,5.30
2017-01-31T05:30:17.901Z,5.27
2017-01-31T05:30:39.646Z,5.25
2017-01-31T05:31:06.124Z,5.24
2017-01-31T05:31:27.850Z,5.25
2017-01-31T05:31:49.568Z,5.23
2017-01-31T05:32:20.824Z,5.17
2017-01-31T05:32:42.539Z,5.13
2017-01-31T05:33:04.285Z,5.13
2017-01-31T05:33:30.782Z,5.11
2017-01-31T05:34:33.878Z,5.14
2017-01-31T05:35:42.075Z,5.11
2017-01-31T05:36:03.792Z,5.15
2017-01-31T05:36:30.275Z,5.17
2017-01-31T05:36:51.979Z,5.16
2017-01-31T05:37:18.449Z,5.12
2017-01-31T05:37:40.164Z,5.12
2017-01-31T05:38:06.636Z,5.14
2017-01-31T05:38:28.339Z,5.14
2017-01-31T05:38:50.092Z,5.17
2017-01-31T05:40:00.095Z,5.11
2017-01-31T05:40:21.762Z,5.11
2017-01-31T05:41:24.262Z,5.07
2017-01-31T05:41:45.967Z,5.08
2017-01-31T05:42:07.701Z,5.09
2017-01-31T05:42:29.418Z,5.10
2017-01-31T05:42:55.925Z,5.08
2017-01-31T05:43:17.627Z,5.08
2017-01-31T05:43:39.318Z,5.08
2017-01-31T05:44:10.566Z,5.11
2017-01-31T05:44:32.280Z,5.15
2017-01-31T05:44:53.999Z,5.14